Flight Track Log - Related Links

Times and Time Zones

All times are in EDT time to prevent confusion due to time zone crossing. See the GJS3710 flight status page for this flight to view local times or setup timezone preferences in your user account.

Time Position Orientation Groundspeed Altitude Reporting Facility
EDT Latitude Longitude Course Direction KTS MPH feet Rate Location/Type
Sun 09:32:15 PM 41.9833 -87.8000 86° East 209 241 3,300  Level Chicago TRACON
Sun 09:34:00 PM 42.1747 -87.3262 66° East  Level FlightAware Approximate
Sun 09:34:32 PM 41.9944 -87.5975 86° East 288 331 8,500  Level Chicago Center
Sun 09:35:00 PM 42.2242 -87.1775 66° East  Level FlightAware Approximate
Sun 09:35:33 PM 41.9869 -87.4850 95° East 300 345 10,500  Level Chicago Center
Sun 09:36:00 PM 42.2667 -87.0266 90° East  Level FlightAware Approximate
Sun 09:36:35 PM 41.9750 -87.3547 97° East 349 402 12,000  Level Chicago Center
Sun 09:37:00 PM 42.2733 -86.8636 86° East  Level FlightAware Approximate
Sun 09:37:36 PM 41.9911 -87.2144 81° East 379 436 13,600  Level Chicago Center
Sun 09:38:38 PM 42.0144 -87.0381 80° East 400 460 15,800 1,935 Climbing Chicago Center
Sun 09:39:40 PM 42.0328 -86.8881 81° East 406 467 17,600 1,463 Climbing Chicago Center
Sun 09:40:41 PM 42.0511 -86.7292 81° East 421 484 18,800 1,366 Climbing Chicago Center
Sun 09:41:43 PM 42.0678 -86.5664 82° East 440 506 20,400 1,512 Climbing Chicago Center
Sun 09:42:44 PM 42.0869 -86.4003 81° East 447 514 21,900 1,415 Climbing Chicago Center
Sun 09:43:46 PM 42.1050 -86.2339 82° East 449 517 23,300 1,171 Climbing Chicago Center
Sun 09:44:47 PM 42.1239 -86.0633 81° East 458 527 24,300 1,024 Climbing Chicago Center
Sun 09:45:49 PM 42.1447 -85.8681 82° East 468 539 25,400 1,024 Climbing Chicago Center
Sun 09:46:50 PM 42.1892 -85.7036 70° East 471 542 26,400 976 Climbing Chicago Center
Sun 09:47:52 PM 42.2067 -85.5256 82° East 489 563 27,400 976 Climbing Chicago Center
Sun 09:48:53 PM 42.2211 -85.3456 84° East 488 562 28,400 976 Climbing Chicago Center
Sun 09:49:55 PM 42.2361 -85.1631 84° East 491 565 29,400 1,073 Climbing Chicago Center
Sun 09:50:56 PM 42.2528 -84.9442 84° East 493 567 30,600 1,122 Climbing Chicago Center
Sun 09:51:58 PM 42.2658 -84.7622 84° East 490 564 31,700 836 Climbing Chicago Center
Sun 09:52:58 PM 42.2753 -84.5992 85° East 491 565 32,300 550 Climbing Cleveland Center
Sun 09:53:58 PM 42.2942 -84.4181 82° East 486 559 32,800 650 Climbing Cleveland Center
Sun 09:54:58 PM 42.3189 -84.2342 80° East 492 566 33,600 800 Climbing Cleveland Center
Sun 09:55:58 PM 42.3456 -84.0472 79° East 497 572 34,400 800 Climbing Cleveland Center
Sun 09:56:58 PM 42.3717 -83.8661 79° East 497 572 35,200 850 Climbing Cleveland Center
Sun 09:57:58 PM 42.3956 -83.6844 80° East 497 572 36,100 800 Climbing Cleveland Center
Sun 09:58:58 PM 42.4111 -83.4828 84° East 497 572 36,800 450 Climbing Cleveland Center
Sun 09:59:58 PM 42.4178 -83.2944 87° East 497 572 37,000 100 Climbing Cleveland Center
Sun 10:00:58 PM 42.4242 -83.1092 87° East 492 566 37,000  Level Cleveland Center
Sun 10:01:58 PM 42.4303 -82.9153 87° East 497 572 37,000  Level Cleveland Center
Sun 10:02:58 PM 42.4381 -82.7242 87° East 497 572 37,000  Level Cleveland Center
Sun 10:03:58 PM 42.4436 -82.5303 88° East 502 578 37,000  Level Cleveland Center
Sun 10:04:58 PM 42.4489 -82.3419 88° East 502 578 37,000  Level Cleveland Center
Sun 10:05:58 PM 42.4517 -82.1506 89° East 502 578 37,000  Level Cleveland Center
Sun 10:06:58 PM 42.4561 -81.9622 88° East 496 571 37,000  Level Cleveland Center
Sun 10:07:58 PM 42.4600 -81.8103 88° East 496 571 37,000  Level Cleveland Center
Sun 10:08:58 PM 42.4661 -81.5853 88° East 496 571 37,000  Level Cleveland Center
Sun 10:09:58 PM 42.4700 -81.3883 88° East 501 577 37,000  Level Cleveland Center
Sun 10:10:58 PM 42.4753 -81.1969 88° East 501 577 37,000  Level Cleveland Center
Sun 10:11:58 PM 42.4781 -81.0056 89° East 507 583 37,000  Level Cleveland Center
Sun 10:12:58 PM 42.4808 -80.8142 89° East 513 590 37,000  Level Cleveland Center
Sun 10:13:58 PM 42.4831 -80.6197 89° East 513 590 37,000  Level Cleveland Center
Sun 10:14:58 PM 42.4850 -80.4256 89° East 513 590 37,000  Level Cleveland Center
Sun 10:15:58 PM 42.4867 -80.2256 89° East 518 596 37,000  Level Cleveland Center
Sun 10:16:58 PM 42.4861 -80.0483 90° East 513 590 37,000  Level Cleveland Center
Sun 10:17:58 PM 42.4933 -79.8539 87° East 518 596 37,000  Level Cleveland Center
Sun 10:18:58 PM 42.4919 -79.6597 90° East 518 596 37,000  Level Cleveland Center
Sun 10:19:58 PM 42.4944 -79.4625 89° East 512 589 37,000  Level Cleveland Center
Sun 10:20:58 PM 42.4922 -79.2683 91° East 512 589 37,000  Level Cleveland Center
Sun 10:21:58 PM 42.5067 -79.0764 84° East 517 595 37,000  Level Cleveland Center
Sun 10:22:58 PM 42.5206 -78.8844 84° East 517 595 37,000  Level Cleveland Center
Sun 10:23:58 PM 42.5322 -78.6869 85° East 517 595 37,000  Level Cleveland Center
Sun 10:24:58 PM 42.5456 -78.4919 85° East 517 595 37,000  Level Cleveland Center
Sun 10:25:58 PM 42.5564 -78.2972 86° East 517 595 37,000 -400 Level Cleveland Center
Sun 10:26:58 PM 42.5692 -78.1022 85° East 517 595 36,200 -900 Descending Cleveland Center
Sun 10:27:58 PM 42.5814 -77.9042 85° East 517 595 35,200 -1,100 Descending Cleveland Center
Sun 10:28:58 PM 42.5950 -77.6922 85° East 517 595 34,000 -1,286 Descending Cleveland Center
Sun 10:31:14 PM 42.6164 -77.2742 86° East 510 587 31,000 -1,316 Descending Boston Center
Sun 10:32:14 PM 42.6267 -77.0800 86° East 510 587 29,700 -1,000 Descending Boston Center
Sun 10:33:14 PM 42.6361 -76.8972 86° East 497 572 29,000 -350 Descending Boston Center
Sun 10:34:14 PM 42.6453 -76.7114 86° East 492 566 29,000  Level Boston Center
Sun 10:35:14 PM 42.6542 -76.5256 86° East 487 560 29,000 -100 Level Boston Center
Sun 10:36:14 PM 42.6628 -76.3397 86° East 487 560 28,800 -1,100 Descending Boston Center
Sun 10:37:14 PM 42.6731 -76.1567 86° East 492 566 26,800 -2,000 Descending Boston Center
Sun 10:38:14 PM 42.6764 -75.9875 88° East 470 541 24,800 -1,727 Descending Boston Center
Sun 10:39:26 PM 42.6856 -75.8269 86° East 440 506 23,000 -1,682 Descending Boston Center
Sun 10:40:26 PM 42.6908 -75.6408 88° East 415 478 21,100 -1,700 Descending Boston Center
Sun 10:41:26 PM 42.6972 -75.4856 87° East 410 472 19,600 -1,500 Descending Boston Center
Sun 10:42:26 PM 42.7056 -75.3306 86° East 410 472 18,100 -1,500 Descending Boston Center
Sun 10:43:26 PM 42.7114 -75.1783 87° East 410 472 16,600 -1,500 Descending Boston Center
Sun 10:44:26 PM 42.7147 -75.0286 88° East 399 459 15,100 -1,400 Descending Boston Center
Sun 10:45:26 PM 42.7200 -74.8847 87° East 394 453 13,800 -1,250 Descending Boston Center
Sun 10:46:26 PM 42.7253 -74.7378 87° East 388 447 12,600 -1,269 Descending Boston Center
Sun 10:47:10 PM 42.7275 -74.6278 88° East 368 423 11,600 -1,100 Descending Boston Center
Sun 10:47:26 PM 42.7283 -74.5853 88° East 370 426 11,500 -700 Descending Boston Center
Sun 10:48:10 PM 42.7258 -74.4947 92° East 342 394 10,900 -500 Descending Boston Center
Sun 10:48:26 PM 42.7219 -74.4722 103° East 351 404 11,000 -197 Climbing Boston Center
Sun 10:49:11 PM 42.7047 -74.3783 104° East 307 353 10,700 -600 Descending Boston Center
Sun 10:49:26 PM 42.6992 -74.3469 104° East 316 364 10,400 -1,475 Descending Boston Center
Sun 10:50:12 PM 42.6817 -74.2617 106° East 316 364 9,200 -1,528 Descending Boston Center
Sun 10:51:12 PM 42.6606 -74.1453 104° East 320 368 7,700 -1,636 Descending Boston Center
Sun 10:52:13 PM 42.6414 -74.0264 102° East 302 348 5,900 -1,359 Descending Boston Center
Sun 10:53:20 PM 42.5756 -73.9656 146° Southeast 255 293 4,800 -750 Descending Boston Center
Sun 10:54:21 PM 42.5200 -73.9161 147° Southeast 236 272 4,300 -522 Descending Boston Center
Sun 10:55:15 PM 42.4833 -73.8561 130° Southeast 243 280 3,800 -783 Descending Boston Center
Sun 10:56:16 PM 42.5214 -73.8006 47° Northeast 190 219 2,800 -758 Descending Boston Center
Sun 10:56:50 PM 42.5425 -73.7928 15° North 130 150 2,600 -197 Descending Boston Center
Sun 10:57:17 PM 42.5714 -73.8017 347° North 156 180 2,600 -100 Level Boston Center
Sun 10:57:50 PM 42.5986 -73.8025 359° North 151 174 2,500 -100 Descending Boston Center
Sun 10:58:17 PM 42.6214 -73.8000 North 171 197 2,500  Level Boston Center
Sun 10:58:50 PM 42.6361 -73.8033 351° North 158 182 2,500 -787 Level Boston Center
Sun 10:59:18 PM 42.6672 -73.8039 359° North 173 199 1,700 -1,714 Descending Boston Center

Login

Don't have an account? Register now (free) for customized features, flight alerts, and more!